createdAt,value
2022-11-26T00:00:43.026Z,27.23
2022-11-26T00:03:10.723Z,31.23
2022-11-26T00:05:38.283Z,32.88
2022-11-26T00:08:15.187Z,36.75
2022-11-26T00:10:42.479Z,31.60
2022-11-26T00:13:15.935Z,31.05
2022-11-26T00:15:43.241Z,39.92
2022-11-26T00:18:10.531Z,28.60
2022-11-26T00:20:37.851Z,27.25
2022-11-26T00:23:05.444Z,30.40
2022-11-26T00:25:38.496Z,32.33
2022-11-26T00:28:19.579Z,31.13
2022-11-26T00:30:46.928Z,26.55
2022-11-26T00:33:14.321Z,31.73
2022-11-26T00:35:41.796Z,31.40
2022-11-26T00:38:11.822Z,33.08
2022-11-26T00:40:41.627Z,37.25
2022-11-26T00:43:11.243Z,27.73
2022-11-26T00:45:38.772Z,36.63
2022-11-26T00:48:06.249Z,40.97
2022-11-26T00:50:34.798Z,32.35
2022-11-26T00:53:02.132Z,41.80
2022-11-26T00:55:30.771Z,33.33
2022-11-26T00:57:59.547Z,31.10
2022-11-26T01:00:28.298Z,41.17
2022-11-26T01:02:56.252Z,39.10
2022-11-26T01:05:24.526Z,32.45
2022-11-26T01:07:52.687Z,34.10
2022-11-26T01:10:21.195Z,32.70
2022-11-26T01:12:48.897Z,44.90
2022-11-26T01:15:18.007Z,42.10
2022-11-26T01:17:45.346Z,35.63
2022-11-26T01:20:24.104Z,40.25
2022-11-26T01:22:53.636Z,48.58
2022-11-26T01:25:21.099Z,36.33
2022-11-26T01:27:48.462Z,38.20
2022-11-26T01:30:19.955Z,44.20
2022-11-26T01:32:48.596Z,34.58
2022-11-26T01:35:16.248Z,38.13
2022-11-26T01:37:44.122Z,36.25
2022-11-26T01:40:24.879Z,36.28
2022-11-26T01:42:53.391Z,41.58
2022-11-26T01:45:22.946Z,41.50
2022-11-26T01:47:50.526Z,32.92
2022-11-26T01:50:48.516Z,38.38
2022-11-26T01:53:20.202Z,37.60
2022-11-26T01:55:48.907Z,43.60
2022-11-26T01:58:18.732Z,41.80
2022-11-26T02:00:47.963Z,38.47
2022-11-26T02:03:15.549Z,37.65
2022-11-26T02:05:45.965Z,33.88
2022-11-26T02:08:13.507Z,41.58
2022-11-26T02:10:40.829Z,41.72
2022-11-26T02:13:08.154Z,37.53
2022-11-26T02:15:42.010Z,43.00
2022-11-26T02:18:10.771Z,42.83
2022-11-26T02:20:51.877Z,42.50
2022-11-26T02:23:34.077Z,40.65
2022-11-26T02:26:22.288Z,28.90
2022-11-26T02:28:59.486Z,41.47
2022-11-26T02:31:30.761Z,37.53
2022-11-26T02:34:04.405Z,42.78
2022-11-26T02:36:34.353Z,40.88
2022-11-26T02:39:11.463Z,35.92
2022-11-26T02:41:41.984Z,37.88
2022-11-26T02:44:09.354Z,37.58
2022-11-26T02:46:38.503Z,45.17
2022-11-26T02:49:06.013Z,38.72
2022-11-26T02:51:35.068Z,32.90
2022-11-26T02:54:02.696Z,30.85
2022-11-26T02:56:30.068Z,35.47
2022-11-26T02:58:58.027Z,40.92
2022-11-26T03:01:29.154Z,34.67
2022-11-26T03:03:59.923Z,30.08
2022-11-26T03:06:28.755Z,35.30
2022-11-26T03:08:56.703Z,33.13
2022-11-26T03:11:24.106Z,42.58
2022-11-26T03:13:51.508Z,33.30
2022-11-26T03:16:18.844Z,38.72
2022-11-26T03:18:46.185Z,39.53
2022-11-26T03:21:14.840Z,31.33
2022-11-26T03:23:42.163Z,30.75
2022-11-26T03:26:11.780Z,38.22
2022-11-26T03:28:39.210Z,28.27
2022-11-26T03:31:06.676Z,36.40
2022-11-26T03:33:33.966Z,27.35
2022-11-26T03:36:01.288Z,28.58
2022-11-26T03:38:29.979Z,38.45
2022-11-26T03:40:57.810Z,22.52
2022-11-26T03:43:25.183Z,20.67
2022-11-26T03:45:52.534Z,38.15
2022-11-26T03:48:19.900Z,24.52
2022-11-26T03:50:47.230Z,24.20
2022-11-26T03:53:14.558Z,26.67
2022-11-26T03:55:43.191Z,25.15
2022-11-26T03:58:10.508Z,19.63
2022-11-26T04:00:37.845Z,23.58
2022-11-26T04:03:05.253Z,23.02
2022-11-26T04:05:32.883Z,27.08
2022-11-26T04:08:00.209Z,22.52
2022-11-26T04:10:27.494Z,22.42
2022-11-26T04:12:56.133Z,25.92
2022-11-26T04:15:23.473Z,23.05
2022-11-26T04:17:50.791Z,20.80
2022-11-26T04:20:18.245Z,29.50
2022-11-26T04:22:45.645Z,25.85
2022-11-26T04:25:12.926Z,22.77
2022-11-26T04:27:40.242Z,24.30
2022-11-26T04:30:10.056Z,26.05
2022-11-26T04:32:39.717Z,23.92
2022-11-26T04:35:07.654Z,12.85
2022-11-26T04:37:35.199Z,24.98
2022-11-26T04:40:03.157Z,19.38
2022-11-26T04:42:30.468Z,24.88
2022-11-26T04:44:57.795Z,20.42
2022-11-26T04:47:26.528Z,19.90
2022-11-26T04:49:53.948Z,20.70
2022-11-26T04:52:21.327Z,25.65
2022-11-26T04:54:48.634Z,22.25
2022-11-26T04:57:15.924Z,15.93
2022-11-26T04:59:43.223Z,26.63
2022-11-26T05:02:10.516Z,19.55
2022-11-26T05:04:39.275Z,20.20
2022-11-26T05:07:06.764Z,17.58
2022-11-26T05:09:34.135Z,22.40
2022-11-26T05:12:01.465Z,24.10
2022-11-26T05:14:28.767Z,23.33
2022-11-26T05:16:56.159Z,26.23
2022-11-26T05:19:23.475Z,21.27
2022-11-26T05:21:52.065Z,23.02
2022-11-26T05:24:19.390Z,21.00
2022-11-26T05:26:46.727Z,27.05
2022-11-26T05:29:14.029Z,21.75
2022-11-26T05:31:41.461Z,23.27
2022-11-26T05:34:08.801Z,23.70
2022-11-26T05:36:36.174Z,19.10
2022-11-26T05:39:05.241Z,22.65
2022-11-26T05:41:32.526Z,18.48
2022-11-26T05:43:59.798Z,24.08
2022-11-26T05:46:27.158Z,19.95
2022-11-26T05:48:54.447Z,21.02
2022-11-26T05:51:21.754Z,18.60
2022-11-26T05:53:49.123Z,22.77
2022-11-26T05:56:17.783Z,27.25
2022-11-26T05:58:45.202Z,18.88
2022-11-26T06:01:12.523Z,20.23
2022-11-26T06:03:40.008Z,19.67
2022-11-26T06:06:07.593Z,24.48
2022-11-26T06:08:34.892Z,20.63
2022-11-26T06:11:02.277Z,14.40
2022-11-26T06:13:30.924Z,29.95
2022-11-26T06:15:58.248Z,23.75
2022-11-26T06:18:25.573Z,21.10
2022-11-26T06:20:52.902Z,22.42
2022-11-26T06:23:20.239Z,17.67
2022-11-26T06:25:48.187Z,34.30
2022-11-26T06:28:15.494Z,22.63
2022-11-26T06:30:46.209Z,19.08
2022-11-26T06:33:13.650Z,17.65
2022-11-26T06:35:40.955Z,23.35
2022-11-26T06:38:08.253Z,24.42
2022-11-26T06:40:35.760Z,19.73
2022-11-26T06:43:03.119Z,31.05
2022-11-26T06:45:30.560Z,19.85
2022-11-26T06:47:59.247Z,22.58
2022-11-26T06:50:26.573Z,18.92
2022-11-26T06:52:54.142Z,20.23
2022-11-26T06:55:21.507Z,16.02
2022-11-26T06:57:50.062Z,23.08
2022-11-26T07:00:17.626Z,25.63
2022-11-26T07:02:45.012Z,19.38
2022-11-26T07:05:13.714Z,25.95
2022-11-26T07:07:41.310Z,26.95
2022-11-26T07:10:09.088Z,20.60
2022-11-26T07:12:36.427Z,16.98
2022-11-26T07:15:03.734Z,22.58
2022-11-26T07:17:31.043Z,27.52
2022-11-26T07:19:58.342Z,24.15
2022-11-26T07:22:27.074Z,24.17
2022-11-26T07:24:54.355Z,23.65
2022-11-26T07:27:21.693Z,26.08
2022-11-26T07:29:48.978Z,29.27
2022-11-26T07:32:16.277Z,22.05
2022-11-26T07:34:43.563Z,26.33
2022-11-26T07:37:10.875Z,31.75
2022-11-26T07:39:39.505Z,24.20
2022-11-26T07:42:06.822Z,24.63
2022-11-26T07:44:34.138Z,33.25
2022-11-26T07:47:02.213Z,27.27
2022-11-26T07:49:29.578Z,35.95
2022-11-26T07:51:56.974Z,27.80
2022-11-26T07:54:24.312Z,34.38
2022-11-26T07:56:52.957Z,25.50
2022-11-26T07:59:20.324Z,28.13
2022-11-26T08:01:48.125Z,30.23
2022-11-26T08:04:15.496Z,28.65
2022-11-26T08:06:42.809Z,26.60
2022-11-26T08:09:11.395Z,32.83
2022-11-26T08:11:38.704Z,25.50
2022-11-26T08:14:08.373Z,29.38
2022-11-26T08:16:35.760Z,22.63
2022-11-26T08:19:04.308Z,28.55
2022-11-26T08:21:31.691Z,28.42
2022-11-26T08:23:59.225Z,22.10
2022-11-26T08:26:34.596Z,20.77
2022-11-26T08:29:04.992Z,20.17
2022-11-26T08:31:34.648Z,21.05
2022-11-26T08:34:02.851Z,23.00
2022-11-26T08:36:30.876Z,20.88
2022-11-26T08:38:59.045Z,19.27
2022-11-26T08:41:26.350Z,24.17
2022-11-26T08:44:09.213Z,24.80
2022-11-26T08:46:38.798Z,21.35
2022-11-26T08:49:07.144Z,17.17
2022-11-26T08:51:34.676Z,22.77
2022-11-26T08:54:02.134Z,14.43
2022-11-26T08:56:29.499Z,19.77
2022-11-26T08:58:56.970Z,20.67
2022-11-26T09:01:26.186Z,29.98
2022-11-26T09:03:55.869Z,19.63
2022-11-26T09:06:24.018Z,19.95
2022-11-26T09:09:08.964Z,18.80
2022-11-26T09:11:37.233Z,13.38
2022-11-26T09:14:04.885Z,15.57
2022-11-26T09:16:32.374Z,14.90
2022-11-26T09:19:01.628Z,12.60
2022-11-26T09:21:29.504Z,14.95
2022-11-26T09:23:56.870Z,13.85
2022-11-26T09:26:25.123Z,15.38
2022-11-26T09:28:52.688Z,15.30
2022-11-26T09:31:20.704Z,14.05
2022-11-26T09:33:48.092Z,12.32
2022-11-26T09:36:17.478Z,10.77
2022-11-26T09:38:44.990Z,13.60
2022-11-26T09:41:17.896Z,14.65
2022-11-26T09:43:53.630Z,14.15
2022-11-26T09:46:22.174Z,14.40
2022-11-26T09:48:49.716Z,13.30
2022-11-26T09:51:20.384Z,6.70
2022-11-26T09:53:49.918Z,12.52
2022-11-26T09:56:20.845Z,7.60
2022-11-26T09:58:52.866Z,9.00
2022-11-26T10:01:21.783Z,10.57
2022-11-26T10:03:49.598Z,9.82
2022-11-26T10:06:24.855Z,9.73
2022-11-26T10:09:11.886Z,14.70
2022-11-26T10:11:42.577Z,10.70
2022-11-26T10:14:15.119Z,10.82
2022-11-26T10:16:44.829Z,10.75
2022-11-26T10:19:18.243Z,9.10
2022-11-26T10:22:03.559Z,13.75
2022-11-26T10:24:32.801Z,11.70
2022-11-26T10:27:02.622Z,9.80
2022-11-26T10:29:34.547Z,16.08
2022-11-26T10:32:03.066Z,10.98
2022-11-26T10:34:39.525Z,7.65
2022-11-26T10:37:08.744Z,9.93
2022-11-26T10:39:36.035Z,9.63
2022-11-26T10:42:04.911Z,11.77
2022-11-26T10:44:34.379Z,11.60
2022-11-26T10:47:19.297Z,8.93
2022-11-26T10:49:46.671Z,8.32
2022-11-26T10:52:16.943Z,15.00
2022-11-26T10:54:45.409Z,10.80
2022-11-26T10:57:15.061Z,9.02
2022-11-26T10:59:46.844Z,8.98
2022-11-26T11:02:31.682Z,18.38
2022-11-26T11:05:00.136Z,10.98
2022-11-26T11:07:36.673Z,10.73
2022-11-26T11:10:05.712Z,12.65
2022-11-26T11:12:33.048Z,9.63
2022-11-26T11:15:14.049Z,12.57
2022-11-26T11:17:41.471Z,6.85
2022-11-26T11:20:23.353Z,9.90
2022-11-26T11:22:57.819Z,8.23
2022-11-26T11:25:26.581Z,11.73
2022-11-26T11:27:54.619Z,10.73
2022-11-26T11:30:25.734Z,9.35
2022-11-26T11:32:56.010Z,11.82
2022-11-26T11:35:24.289Z,11.63
2022-11-26T11:37:53.925Z,10.25
2022-11-26T11:40:25.302Z,9.55
2022-11-26T11:42:54.093Z,10.25
2022-11-26T11:45:23.563Z,12.30
2022-11-26T11:47:52.820Z,9.85
2022-11-26T11:50:21.987Z,12.52
2022-11-26T11:53:01.982Z,12.63
2022-11-26T11:55:35.211Z,6.60
2022-11-26T11:58:16.280Z,9.40
2022-11-26T12:00:48.456Z,9.13
2022-11-26T12:03:26.540Z,8.77
2022-11-26T12:06:00.285Z,17.10
2022-11-26T12:08:32.823Z,7.95
2022-11-26T12:11:06.090Z,11.50
2022-11-26T12:13:44.139Z,7.80
2022-11-26T12:16:12.789Z,13.43
2022-11-26T12:18:42.767Z,20.05
2022-11-26T12:21:12.109Z,19.52
2022-11-26T12:23:45.896Z,30.67
2022-11-26T12:26:14.783Z,12.00
2022-11-26T12:28:51.132Z,19.45
2022-11-26T12:31:20.760Z,10.18
2022-11-26T12:33:51.009Z,12.07
2022-11-26T12:36:21.382Z,9.82
2022-11-26T12:38:52.432Z,11.75
2022-11-26T12:41:20.854Z,7.55
2022-11-26T12:43:49.897Z,10.13
2022-11-26T12:46:19.491Z,9.68
2022-11-26T12:48:50.731Z,10.25
2022-11-26T12:51:23.895Z,10.68
2022-11-26T12:53:58.332Z,9.48
2022-11-26T12:56:30.802Z,8.60
2022-11-26T12:59:02.798Z,11.63
2022-11-26T13:01:31.648Z,12.80
2022-11-26T13:04:22.028Z,15.60
2022-11-26T13:06:53.809Z,12.95
2022-11-26T13:09:30.588Z,13.70
2022-11-26T13:11:59.312Z,10.50
2022-11-26T13:14:32.361Z,11.52
2022-11-26T13:17:03.320Z,11.98
2022-11-26T13:19:33.626Z,11.60
2022-11-26T13:22:07.743Z,9.60
2022-11-26T13:24:44.576Z,13.07
2022-11-26T13:27:19.398Z,15.73
2022-11-26T13:32:25.982Z,14.27
2022-11-26T13:35:00.234Z,12.65
2022-11-26T13:37:35.161Z,17.55
2022-11-26T13:42:53.706Z,11.90
2022-11-26T13:45:36.095Z,12.25
2022-11-26T13:48:07.120Z,11.50
2022-11-26T13:50:37.807Z,13.80
2022-11-26T13:53:07.494Z,13.20
2022-11-26T13:55:37.215Z,15.60
2022-11-26T13:58:06.890Z,11.25
2022-11-26T14:00:35.016Z,11.05
2022-11-26T14:03:03.446Z,10.68
2022-11-26T14:05:45.714Z,12.85
2022-11-26T14:08:27.931Z,17.08
2022-11-26T14:10:56.555Z,10.90
2022-11-26T14:13:23.866Z,19.30
2022-11-26T14:15:52.378Z,15.65
2022-11-26T14:18:39.860Z,16.38
2022-11-26T14:21:14.712Z,14.35
2022-11-26T14:26:10.179Z,16.85
2022-11-26T14:28:37.534Z,18.60
2022-11-26T14:31:08.467Z,20.77
2022-11-26T14:33:35.880Z,13.45
2022-11-26T14:36:03.196Z,14.88
2022-11-26T14:38:35.133Z,20.17
2022-11-26T14:41:02.452Z,17.23
2022-11-26T14:43:30.296Z,12.50
2022-11-26T14:46:02.889Z,16.95
2022-11-26T14:48:30.765Z,16.40
2022-11-26T14:51:00.012Z,13.93
2022-11-26T14:53:29.166Z,18.35
2022-11-26T14:55:57.922Z,10.95
2022-11-26T14:58:29.363Z,13.63
2022-11-26T15:01:17.823Z,15.75
2022-11-26T15:03:54.178Z,12.20
2022-11-26T15:06:24.783Z,14.70
2022-11-26T15:08:52.105Z,13.18
2022-11-26T15:11:21.579Z,15.77
2022-11-26T15:13:48.991Z,12.73
2022-11-26T15:16:27.771Z,15.43
2022-11-26T15:18:55.687Z,12.93
2022-11-26T15:21:24.290Z,16.00
2022-11-26T15:23:52.359Z,12.98
2022-11-26T15:26:23.023Z,17.27
2022-11-26T15:28:50.535Z,17.90
2022-11-26T15:31:17.975Z,16.58
2022-11-26T15:33:45.560Z,13.38
2022-11-26T15:36:17.398Z,12.57
2022-11-26T15:38:59.875Z,17.25
2022-11-26T15:41:28.778Z,18.75
2022-11-26T15:43:58.603Z,19.50
2022-11-26T15:46:26.511Z,18.55
2022-11-26T15:48:54.825Z,19.40
2022-11-26T15:51:23.930Z,14.07
2022-11-26T15:53:51.615Z,14.27
2022-11-26T15:56:19.750Z,15.80
2022-11-26T15:58:50.292Z,15.15
2022-11-26T16:01:19.666Z,14.27
2022-11-26T16:03:48.120Z,17.60
2022-11-26T16:06:29.710Z,15.88
2022-11-26T16:08:59.394Z,19.40
2022-11-26T16:11:27.139Z,16.58
2022-11-26T16:13:55.848Z,14.98
2022-11-26T16:16:24.391Z,14.80
2022-11-26T16:18:54.000Z,18.50
2022-11-26T16:21:24.136Z,19.13
2022-11-26T16:23:54.917Z,17.40
2022-11-26T16:26:22.182Z,19.17
2022-11-26T16:28:49.512Z,15.45
2022-11-26T16:31:18.661Z,14.45
2022-11-26T16:33:46.040Z,14.23
2022-11-26T16:36:18.124Z,15.20
2022-11-26T16:38:45.669Z,13.35
2022-11-26T16:41:13.682Z,18.20
2022-11-26T16:43:41.014Z,21.95
2022-11-26T16:46:10.933Z,19.33
2022-11-26T16:48:40.175Z,22.50
2022-11-26T16:51:07.493Z,32.58
2022-11-26T16:53:34.814Z,22.75
2022-11-26T16:56:02.232Z,15.75
2022-11-26T16:58:30.526Z,25.02
2022-11-26T17:00:58.189Z,18.63
2022-11-26T17:03:27.309Z,21.00
2022-11-26T17:05:57.216Z,24.92
2022-11-26T17:08:24.772Z,42.08
2022-11-26T17:10:52.280Z,54.20
2022-11-26T17:13:20.439Z,81.22
2022-11-26T17:15:48.228Z,31.70
2022-11-26T17:18:19.059Z,20.90
2022-11-26T17:20:46.739Z,19.77
2022-11-26T17:23:15.647Z,16.40
2022-11-26T17:25:44.088Z,23.10
2022-11-26T17:28:11.842Z,21.55
2022-11-26T17:30:39.531Z,24.17
2022-11-26T17:33:07.323Z,22.40
2022-11-26T17:35:34.612Z,22.60
2022-11-26T17:38:02.170Z,24.40
2022-11-26T17:40:30.860Z,25.50
2022-11-26T17:42:58.170Z,23.23
2022-11-26T17:45:25.431Z,18.77
2022-11-26T17:47:52.751Z,18.55
2022-11-26T17:50:20.938Z,22.65
2022-11-26T17:52:48.648Z,20.45
2022-11-26T17:55:16.055Z,27.42
2022-11-26T17:57:44.994Z,22.77
2022-11-26T18:00:13.594Z,21.20
2022-11-26T18:02:41.063Z,20.00
2022-11-26T18:05:08.824Z,23.88
2022-11-26T18:07:37.003Z,21.88
2022-11-26T18:10:04.652Z,19.35
2022-11-26T18:12:31.983Z,20.33
2022-11-26T18:15:01.940Z,25.42
2022-11-26T18:17:29.462Z,23.98
2022-11-26T18:19:57.481Z,23.80
2022-11-26T18:22:26.112Z,19.63
2022-11-26T18:24:56.812Z,21.50
2022-11-26T18:27:25.622Z,26.10
2022-11-26T18:29:52.944Z,20.75
2022-11-26T18:32:21.652Z,19.05
2022-11-26T18:34:49.756Z,30.08
2022-11-26T18:37:17.137Z,37.13
2022-11-26T18:39:44.445Z,26.42
2022-11-26T18:44:59.327Z,28.95
2022-11-26T18:47:28.024Z,21.35
2022-11-26T18:49:55.379Z,24.02
2022-11-26T18:52:22.723Z,51.75
2022-11-26T18:54:50.067Z,21.75
2022-11-26T18:57:17.408Z,20.25
2022-11-26T18:59:44.749Z,28.00
2022-11-26T19:02:12.370Z,31.52
2022-11-26T19:04:41.452Z,31.70
2022-11-26T19:07:09.557Z,28.65
2022-11-26T19:09:38.129Z,20.88
2022-11-26T19:12:05.880Z,23.70
2022-11-26T19:14:33.147Z,25.95
2022-11-26T19:17:01.506Z,34.05
2022-11-26T19:19:28.856Z,25.48
2022-11-26T19:22:01.028Z,19.08
2022-11-26T19:24:29.448Z,26.30
2022-11-26T19:26:56.842Z,22.50
2022-11-26T19:29:24.223Z,28.95
2022-11-26T19:31:51.644Z,24.00
2022-11-26T19:34:18.968Z,29.88
2022-11-26T19:36:48.364Z,20.00
2022-11-26T19:39:18.139Z,25.15
2022-11-26T19:41:45.465Z,21.52
2022-11-26T19:44:12.820Z,27.52
2022-11-26T19:46:40.591Z,31.27
2022-11-26T19:49:08.552Z,39.25
2022-11-26T19:51:35.888Z,29.13
2022-11-26T19:54:03.377Z,33.13
2022-11-26T19:56:32.479Z,39.72
2022-11-26T19:59:01.797Z,42.30
2022-11-26T20:01:30.461Z,31.38
2022-11-26T20:03:59.221Z,40.25
2022-11-26T20:06:27.707Z,35.90
2022-11-26T20:08:55.742Z,28.02
2022-11-26T20:11:23.265Z,33.30
2022-11-26T20:13:51.945Z,25.70
2022-11-26T20:16:20.227Z,50.38
2022-11-26T20:18:47.789Z,28.75
2022-11-26T20:21:16.140Z,37.42
2022-11-26T20:23:43.544Z,48.97
2022-11-26T20:26:15.080Z,34.15
2022-11-26T20:28:42.451Z,26.63
2022-11-26T20:31:11.254Z,32.05
2022-11-26T20:33:38.641Z,35.08
2022-11-26T20:36:06.763Z,28.50
2022-11-26T20:38:34.085Z,36.88
2022-11-26T20:41:01.426Z,31.27
2022-11-26T20:43:28.799Z,33.20
2022-11-26T20:46:02.758Z,28.92
2022-11-26T20:48:31.799Z,30.00
2022-11-26T20:51:01.503Z,31.90
2022-11-26T20:53:28.876Z,29.50
2022-11-26T20:55:56.905Z,26.27
2022-11-26T20:58:24.240Z,18.88
2022-11-26T21:00:53.790Z,26.35
2022-11-26T21:03:21.428Z,33.80
2022-11-26T21:05:50.293Z,34.40
2022-11-26T21:08:17.759Z,26.15
2022-11-26T21:10:45.092Z,24.90
2022-11-26T21:13:15.803Z,26.30
2022-11-26T21:15:43.697Z,26.83
2022-11-26T21:18:11.643Z,30.65
2022-11-26T21:20:39.493Z,32.17
2022-11-26T21:23:08.234Z,29.45
2022-11-26T21:25:37.295Z,31.70
2022-11-26T21:28:04.818Z,30.70
2022-11-26T21:30:32.217Z,29.23
2022-11-26T21:33:02.196Z,29.38
2022-11-26T21:35:32.601Z,22.95
2022-11-26T21:38:00.445Z,24.27
2022-11-26T21:40:29.103Z,29.75
2022-11-26T21:42:56.531Z,27.65
2022-11-26T21:45:23.833Z,20.85
2022-11-26T21:47:51.725Z,22.88
2022-11-26T21:50:19.080Z,32.35
2022-11-26T21:52:46.608Z,23.13
2022-11-26T21:55:13.897Z,29.83
2022-11-26T21:57:42.584Z,34.42
2022-11-26T22:00:10.409Z,26.63
2022-11-26T22:02:37.886Z,30.52
2022-11-26T22:05:05.625Z,24.40
2022-11-26T22:07:33.093Z,33.15
2022-11-26T22:10:00.516Z,26.35
2022-11-26T22:12:27.803Z,27.83
2022-11-26T22:14:56.415Z,27.23
2022-11-26T22:17:23.775Z,26.35
2022-11-26T22:19:51.087Z,28.85
2022-11-26T22:22:18.408Z,28.13
2022-11-26T22:24:45.740Z,27.75
2022-11-26T22:27:13.071Z,28.52
2022-11-26T22:29:40.474Z,25.10
2022-11-26T22:32:09.334Z,25.50
2022-11-26T22:34:36.648Z,32.33
2022-11-26T22:37:03.932Z,18.95
2022-11-26T22:39:31.699Z,20.67
2022-11-26T22:41:59.580Z,27.05
2022-11-26T22:44:26.867Z,29.48
2022-11-26T22:46:54.211Z,29.25
2022-11-26T22:49:22.855Z,27.75
2022-11-26T22:51:50.158Z,26.90
2022-11-26T22:54:18.919Z,14.88
2022-11-26T22:56:46.296Z,20.42
2022-11-26T22:59:14.023Z,21.98
2022-11-26T23:01:41.631Z,22.52
2022-11-26T23:04:09.601Z,24.33
2022-11-26T23:06:39.329Z,18.65
2022-11-26T23:09:07.558Z,24.35
2022-11-26T23:11:36.105Z,20.45
2022-11-26T23:14:05.117Z,19.88
2022-11-26T23:16:32.492Z,25.52
2022-11-26T23:18:59.895Z,19.60
2022-11-26T23:21:28.035Z,32.33
2022-11-26T23:23:57.078Z,21.17
2022-11-26T23:26:27.151Z,23.98
2022-11-26T23:28:55.299Z,21.50
2022-11-26T23:31:23.794Z,15.93
2022-11-26T23:33:51.138Z,23.30
2022-11-26T23:36:19.056Z,20.13
2022-11-26T23:38:46.401Z,25.25
2022-11-26T23:41:15.046Z,21.02
2022-11-26T23:43:42.848Z,18.10
2022-11-26T23:46:11.737Z,19.52
2022-11-26T23:48:39.175Z,15.85
2022-11-26T23:51:07.377Z,15.57
2022-11-26T23:53:35.517Z,16.48
2022-11-26T23:56:03.458Z,22.33
2022-11-26T23:58:32.233Z,19.10
